Time;durP1;ratioP1;P1;durP2;ratioP2;P2;SDS_P1;SDS_P2;PMS_P1;PMS_P2;Temp;Humidity;BMP_temperature;BMP_pressure;BME280_temperature;BME280_humidity;BME280_pressure;Samples;Min_cycle;Max_cycle;Signal;HPM_P1;HPM_P2
2022/02/24 00:01:04;;;;;;;;;;;;;;;22.51;25.15;98229.19;5057416;28;1064;-76
2022/02/24 00:03:32;;;;;;;;;;;;;;;21.98;25.90;98223.63;5056320;28;1547;-77
2022/02/24 00:05:57;;;;;;;;;;;;;;;21.92;26.10;98213.25;5057184;28;1918;-77
2022/02/24 00:08:23;;;;;;;;;;;;;;;21.82;26.25;98224.41;5056052;28;948;-78
2022/02/24 00:10:48;;;;;;;;;;;;;;;22.09;26.46;98215.63;5023980;28;1126;-77
2022/02/24 00:13:15;;;;;;;;;;;;;;;22.42;25.75;98209.16;5038893;28;1245;-76
2022/02/24 00:15:41;;;;;;;;;;;;;;;22.34;25.54;98215.03;5047505;28;1212;-77
2022/02/24 00:18:07;;;;;;;;;;;;;;;22.05;25.80;98209.25;5098308;28;926;-77
2022/02/24 00:20:32;;;;;;;;;;;;;;;21.98;25.98;98214.31;5099918;28;919;-76
2022/02/24 00:22:58;;;;;;;;;;;;;;;22.25;26.01;98212.03;5062537;28;1112;-77
2022/02/24 00:25:23;;;;;;;;;;;;;;;22.36;25.75;98212.53;5099909;28;1950;-77
2022/02/24 00:27:49;;;;;;;;;;;;;;;22.42;25.30;98209.16;5098211;28;899;-76
2022/02/24 00:30:14;;;;;;;;;;;;;;;22.12;25.79;98207.50;5100005;28;966;-77
2022/02/24 00:32:40;;;;;;;;;;;;;;;22.06;25.53;98210.06;5098155;28;981;-76
2022/02/24 00:35:06;;;;;;;;;;;;;;;21.87;25.85;98202.47;5099271;28;933;-76
2022/02/24 00:37:31;;;;;;;;;;;;;;;22.08;26.40;98207.59;5098555;28;1100;-77
2022/02/24 00:39:57;;;;;;;;;;;;;;;22.36;25.63;98206.88;5099034;28;923;-77
2022/02/24 00:42:22;;;;;;;;;;;;;;;22.24;25.72;98196.28;5098151;28;921;-77
2022/02/24 00:44:47;;;;;;;;;;;;;;;22.05;25.66;98197.13;5098582;28;1910;-76
2022/02/24 00:47:13;;;;;;;;;;;;;;;21.94;25.86;98196.59;5098582;28;935;-76
2022/02/24 00:49:38;;;;;;;;;;;;;;;21.97;26.06;98195.72;5098409;28;972;-76
2022/02/24 00:52:04;;;;;;;;;;;;;;;22.21;25.80;98199.97;5099310;28;954;-76
2022/02/24 00:54:30;;;;;;;;;;;;;;;22.43;25.55;98193.75;5098079;28;954;-76
2022/02/24 00:56:55;;;;;;;;;;;;;;;22.27;25.43;98198.19;5098031;28;922;-76
2022/02/24 00:59:21;;;;;;;;;;;;;;;22.00;26.08;98189.16;5097819;28;892;-77
2022/02/24 01:01:48;;;;;;;;;;;;;;;22.00;25.78;98194.84;5063040;28;1134;-76
2022/02/24 01:04:14;;;;;;;;;;;;;;;21.93;26.20;98192.19;5097487;28;1882;-77
2022/02/24 01:06:39;;;;;;;;;;;;;;;22.27;25.78;98197.41;5098424;28;909;-76
2022/02/24 01:09:05;;;;;;;;;;;;;;;22.49;25.58;98197.66;5097758;28;894;-77
2022/02/24 01:11:30;;;;;;;;;;;;;;;22.18;25.52;98206.56;5062778;28;969;-77
2022/02/24 01:13:56;;;;;;;;;;;;;;;22.01;25.68;98196.41;5097333;28;1034;-76
2022/02/24 01:16:21;;;;;;;;;;;;;;;21.88;26.00;98198.38;5098762;28;836;-77
2022/02/24 01:18:47;;;;;;;;;;;;;;;21.91;26.38;98197.47;5097494;28;926;-76
2022/02/24 01:21:12;;;;;;;;;;;;;;;21.72;26.54;98199.97;5098359;28;862;-77
2022/02/24 01:23:38;;;;;;;;;;;;;;;21.84;26.62;98204.91;5097680;28;938;-76
2022/02/24 01:26:03;;;;;;;;;;;;;;;21.89;26.47;98197.94;5098311;28;1914;-77
2022/02/24 01:28:29;;;;;;;;;;;;;;;21.90;26.24;98201.56;5097300;28;1099;-77
2022/02/24 01:30:54;;;;;;;;;;;;;;;22.15;25.90;98213.09;5098640;28;934;-76
2022/02/24 01:33:20;;;;;;;;;;;;;;;22.51;25.33;98212.16;5097146;28;908;-77
2022/02/24 01:35:45;;;;;;;;;;;;;;;22.24;25.53;98210.44;5097884;28;928;-76
2022/02/24 01:38:11;;;;;;;;;;;;;;;21.95;26.09;98209.53;5097232;28;1214;-77
2022/02/24 01:40:36;;;;;;;;;;;;;;;22.02;25.97;98203.66;5098538;28;901;-77
2022/02/24 01:43:02;;;;;;;;;;;;;;;21.95;26.30;98206.69;5096575;28;872;-77
2022/02/24 01:45:27;;;;;;;;;;;;;;;21.93;26.11;98206.34;5098105;28;1878;-76
2022/02/24 01:47:55;;;;;;;;;;;;;;;21.87;26.39;98206.09;5096576;28;1004;-76
2022/02/24 01:50:20;;;;;;;;;;;;;;;22.00;26.00;98197.66;5063157;28;937;-77
2022/02/24 01:52:45;;;;;;;;;;;;;;;21.95;26.09;98201.03;5096621;28;997;-76
2022/02/24 01:55:11;;;;;;;;;;;;;;;21.96;26.20;98199.78;5078916;28;1083;-76
2022/02/24 01:57:36;;;;;;;;;;;;;;;21.88;26.39;98198.38;5096825;28;842;-76
2022/02/24 02:00:03;;;;;;;;;;;;;;;21.96;25.95;98199.78;5097592;28;1148;-76
2022/02/24 02:02:38;;;;;;;;;;;;;;;21.87;26.27;98202.47;5033772;28;1065;-76
2022/02/24 02:05:04;;;;;;;;;;;;;;;21.89;26.34;98197.13;5034900;28;1887;-77
2022/02/24 02:07:30;;;;;;;;;;;;;;;21.84;26.39;98198.47;4994470;28;945;-77
2022/02/24 02:09:55;;;;;;;;;;;;;;;21.88;26.29;98198.38;4955655;28;969;-77
2022/02/24 02:12:21;;;;;;;;;;;;;;;21.75;26.57;98195.44;4956072;29;985;-76
2022/02/24 02:14:46;;;;;;;;;;;;;;;21.35;26.91;98192.75;4956650;29;990;-77
2022/02/24 02:17:12;;;;;;;;;;;;;;;22.23;25.56;98194.69;4956552;29;1022;-76
2022/02/24 02:19:37;;;;;;;;;;;;;;;22.47;25.29;98188.78;4956391;29;996;-76
2022/02/24 02:22:03;;;;;;;;;;;;;;;22.33;25.53;98193.59;4956367;29;942;-77
2022/02/24 02:24:29;;;;;;;;;;;;;;;21.94;26.14;98188.91;4955636;28;1902;-77
2022/02/24 02:26:56;;;;;;;;;;;;;;;21.96;25.88;98186.41;4955902;28;1029;-77
2022/02/24 02:29:21;;;;;;;;;;;;;;;22.06;25.99;98193.06;4955292;29;981;-77
2022/02/24 02:31:46;;;;;;;;;;;;;;;22.32;25.71;98199.69;4956432;28;875;-77
2022/02/24 02:34:16;;;;;;;;;;;;;;;22.61;25.47;98191.22;4971016;28;953;-77
2022/02/24 02:36:42;;;;;;;;;;;;;;;22.38;25.30;98197.13;4975775;28;919;-77
2022/02/24 02:39:11;;;;;;;;;;;;;;;21.97;25.62;98192.91;4974866;28;938;-77
2022/02/24 02:41:37;;;;;;;;;;;;;;;21.91;25.74;98184.09;5022283;28;947;-77
2022/02/24 02:44:02;;;;;;;;;;;;;;;22.01;26.34;98191.53;5042268;28;1909;-78
2022/02/24 02:46:28;;;;;;;;;;;;;;;22.47;25.15;98191.63;5097174;28;1020;-76
2022/02/24 02:48:53;;;;;;;;;;;;;;;22.68;24.66;98188.19;5096046;28;832;-77
2022/02/24 02:51:19;;;;;;;;;;;;;;;22.16;25.51;98194.84;5097015;28;895;-76
2022/02/24 02:53:44;;;;;;;;;;;;;;;22.11;25.50;98195.38;5096246;28;880;-77
2022/02/24 02:56:10;;;;;;;;;;;;;;;21.97;25.71;98195.72;5097593;28;934;-77
2022/02/24 02:58:35;;;;;;;;;;;;;;;21.94;25.92;98196.59;5095948;28;899;-77
2022/02/24 03:01:01;;;;;;;;;;;;;;;22.05;26.06;98197.13;5078442;28;1094;-77
2022/02/24 03:03:26;;;;;;;;;;;;;;;22.08;25.86;98193.41;5096600;28;1197;-77
2022/02/24 03:05:52;;;;;;;;;;;;;;;22.03;25.82;98193.97;5096779;28;1973;-77
2022/02/24 03:08:17;;;;;;;;;;;;;;;22.01;25.89;98191.53;5096156;28;1091;-78
2022/02/24 03:10:43;;;;;;;;;;;;;;;22.00;26.21;98197.66;5096889;28;888;-77
2022/02/24 03:13:09;;;;;;;;;;;;;;;21.96;26.08;98194.13;5095657;28;942;-77
2022/02/24 03:15:34;;;;;;;;;;;;;;;21.63;26.56;98198.97;5097575;28;887;-77
2022/02/24 03:18:00;;;;;;;;;;;;;;;22.03;26.22;98199.63;5095520;28;895;-77
2022/02/24 03:20:30;;;;;;;;;;;;;;;22.40;25.28;98206.78;5099368;28;931;-78
2022/02/24 03:22:56;;;;;;;;;;;;;;;22.43;25.11;98205.88;5099605;28;1204;-77
2022/02/24 03:25:21;;;;;;;;;;;;;;;22.13;25.91;98204.25;5061357;28;1909;-77
2022/02/24 03:27:47;;;;;;;;;;;;;;;22.12;25.57;98208.31;5076563;28;1161;-77
2022/02/24 03:30:13;;;;;;;;;;;;;;;21.95;26.14;98215.19;5078349;28;993;-77
2022/02/24 03:32:39;;;;;;;;;;;;;;;21.89;26.07;98208.47;5077029;28;1219;-78
2022/02/24 03:35:06;;;;;;;;;;;;;;;21.84;26.23;98204.91;4998473;28;937;-78
2022/02/24 03:37:31;;;;;;;;;;;;;;;21.87;26.41;98211.75;4997353;28;883;-76
2022/02/24 03:39:57;;;;;;;;;;;;;;;21.79;26.21;98207.47;4998527;28;1168;-77
2022/02/24 03:42:24;;;;;;;;;;;;;;;21.87;26.42;98208.13;4958859;29;966;-77
2022/02/24 03:44:49;;;;;;;;;;;;;;;21.95;25.98;98209.53;4959589;29;1989;-77
2022/02/24 03:47:16;;;;;;;;;;;;;;;21.88;26.40;98207.69;4958718;29;924;-77
2022/02/24 03:49:43;;;;;;;;;;;;;;;21.82;26.34;98207.41;4959461;29;1063;-78
2022/02/24 03:52:08;;;;;;;;;;;;;;;22.27;25.72;98214.41;4959169;29;912;-77
2022/02/24 03:54:34;;;;;;;;;;;;;;;22.51;25.15;98217.84;4958683;28;964;-77
2022/02/24 03:56:59;;;;;;;;;;;;;;;22.19;25.65;98213.00;4959206;29;943;-78
2022/02/24 03:59:26;;;;;;;;;;;;;;;22.09;25.60;98209.19;4958365;29;944;-77
2022/02/24 04:01:51;;;;;;;;;;;;;;;22.01;25.89;98214.22;4958702;29;1113;-77
2022/02/24 04:04:16;;;;;;;;;;;;;;;22.07;26.07;98214.47;4958260;29;1910;-77
2022/02/24 04:06:42;;;;;;;;;;;;;;;22.38;25.26;98219.78;5018475;28;993;-78
2022/02/24 04:09:07;;;;;;;;;;;;;;;22.56;25.35;98226.59;5036240;28;951;-77
2022/02/24 04:11:33;;;;;;;;;;;;;;;22.69;25.11;98218.16;5037426;28;1105;-77
2022/02/24 04:13:58;;;;;;;;;;;;;;;22.26;25.25;98227.78;5083345;28;1034;-77
2022/02/24 04:16:24;;;;;;;;;;;;;;;22.19;25.64;98230.81;5099873;28;999;-77
2022/02/24 04:18:49;;;;;;;;;;;;;;;22.13;25.56;98231.81;5099175;28;885;-77
2022/02/24 04:21:14;;;;;;;;;;;;;;;22.14;25.78;98231.34;5100179;28;916;-77
2022/02/24 04:23:40;;;;;;;;;;;;;;;22.01;25.96;98230.41;5099086;28;906;-77
2022/02/24 04:26:05;;;;;;;;;;;;;;;21.93;25.79;98229.03;5099836;28;1967;-77
2022/02/24 04:28:31;;;;;;;;;;;;;;;21.93;26.06;98229.03;5098857;28;949;-77
2022/02/24 04:30:56;;;;;;;;;;;;;;;21.77;26.29;98233.44;5099797;28;931;-77
2022/02/24 04:33:22;;;;;;;;;;;;;;;21.99;25.76;98232.91;5097519;28;1123;-77
2022/02/24 04:35:47;;;;;;;;;;;;;;;21.95;25.80;98232.19;5047586;28;939;-77
2022/02/24 04:38:13;;;;;;;;;;;;;;;21.91;26.06;98232.28;5098369;28;915;-78
2022/02/24 04:40:38;;;;;;;;;;;;;;;21.99;25.62;98238.56;5099893;28;1002;-76
2022/02/24 04:43:04;;;;;;;;;;;;;;;21.98;25.96;98243.44;5097989;28;999;-77
2022/02/24 04:45:29;;;;;;;;;;;;;;;22.24;25.57;98243.66;5063869;28;1870;-77
2022/02/24 04:47:54;;;;;;;;;;;;;;;22.36;25.39;98242.94;5097938;28;949;-77
2022/02/24 04:50:20;;;;;;;;;;;;;;;22.12;25.70;98236.66;5099937;28;964;-77
2022/02/24 04:52:45;;;;;;;;;;;;;;;21.96;25.93;98247.94;5098007;28;936;-77
2022/02/24 04:55:11;;;;;;;;;;;;;;;21.93;25.77;98257.34;5099460;28;1120;-78
2022/02/24 04:57:36;;;;;;;;;;;;;;;22.23;25.35;98251.38;5097636;28;1876;-78
2022/02/24 05:00:03;;;;;;;;;;;;;;;22.29;25.42;98252.41;5099295;28;891;-76
2022/02/24 05:02:28;;;;;;;;;;;;;;;22.25;25.21;98257.38;5097856;28;1122;-77
2022/02/24 05:04:54;;;;;;;;;;;;;;;22.04;25.57;98263.56;5099214;28;1965;-78
2022/02/24 05:07:19;;;;;;;;;;;;;;;22.04;25.48;98258.69;5098372;28;1047;-77
2022/02/24 05:09:45;;;;;;;;;;;;;;;22.13;25.76;98271.47;5098626;28;909;-78
2022/02/24 05:12:10;;;;;;;;;;;;;;;22.41;25.41;98281.28;5098704;28;948;-77
2022/02/24 05:14:36;;;;;;;;;;;;;;;22.59;24.85;98275.97;5098346;28;900;-76
2022/02/24 05:17:01;;;;;;;;;;;;;;;22.14;25.58;98271.03;5062158;28;1551;-77
2022/02/24 05:19:26;;;;;;;;;;;;;;;22.02;25.39;98269.66;5098297;28;914;-77
2022/02/24 05:21:52;;;;;;;;;;;;;;;21.96;25.77;98279.13;5099101;28;934;-77
2022/02/24 05:24:18;;;;;;;;;;;;;;;22.23;25.66;98271.22;5097597;28;1979;-78
2022/02/24 05:26:43;;;;;;;;;;;;;;;22.41;25.09;98278.47;5075194;28;1720;-78
2022/02/24 05:29:09;;;;;;;;;;;;;;;22.22;25.16;98275.25;5068118;28;1713;-77
2022/02/24 05:31:34;;;;;;;;;;;;;;;22.09;25.51;98271.53;5066071;28;1702;-77
2022/02/24 05:34:00;;;;;;;;;;;;;;;22.16;25.33;98282.69;5065206;28;995;-77
2022/02/24 05:36:25;;;;;;;;;;;;;;;22.39;25.22;98284.59;5065273;28;1834;-77
2022/02/24 05:38:51;;;;;;;;;;;;;;;22.66;24.89;98287.13;5075290;28;880;-77
2022/02/24 05:41:17;;;;;;;;;;;;;;;22.37;25.17;98295.53;5075790;28;1080;-77
2022/02/24 05:43:43;;;;;;;;;;;;;;;22.08;25.40;98292.59;5062748;28;1776;-78
2022/02/24 05:46:08;;;;;;;;;;;;;;;21.97;25.74;98292.06;5062367;28;1964;-77
2022/02/24 05:48:33;;;;;;;;;;;;;;;22.16;25.64;98299.72;5066260;28;1925;-78
2022/02/24 05:50:59;;;;;;;;;;;;;;;22.37;25.31;98301.22;5061367;28;1952;-77
2022/02/24 05:53:24;;;;;;;;;;;;;;;22.39;25.04;98300.78;5063140;28;2081;-78
2022/02/24 05:55:50;;;;;;;;;;;;;;;22.03;25.67;98293.13;5047517;28;2036;-78
2022/02/24 05:58:15;;;;;;;;;;;;;;;22.00;25.35;98302.50;5079605;28;962;-77
2022/02/24 06:00:41;;;;;;;;;;;;;;;21.89;26.04;98313.28;5078825;28;1789;-78
2022/02/24 06:03:06;;;;;;;;;;;;;;;22.50;25.15;98309.81;5087370;28;1195;-77
2022/02/24 06:05:31;;;;;;;;;;;;;;;22.45;25.15;98316.03;5082526;28;1902;-77
2022/02/24 06:07:57;;;;;;;;;;;;;;;22.05;25.46;98316.16;5069493;28;1908;-77
2022/02/24 06:10:22;;;;;;;;;;;;;;;22.05;25.29;98321.81;5084669;28;1825;-77
2022/02/24 06:12:48;;;;;;;;;;;;;;;21.88;25.88;98323.03;5030947;28;2280;-77
2022/02/24 06:15:14;;;;;;;;;;;;;;;22.08;25.52;98329.44;5034757;28;1693;-77
2022/02/24 06:17:39;;;;;;;;;;;;;;;22.40;25.39;98325.06;5033885;28;1010;-77
2022/02/24 06:20:05;;;;;;;;;;;;;;;22.63;24.87;98333.38;5035380;28;1057;-77
2022/02/24 06:22:30;;;;;;;;;;;;;;;22.19;24.98;98335.69;5024668;28;1371;-77
2022/02/24 06:24:56;;;;;;;;;;;;;;;22.10;25.47;98332.63;5023322;28;1918;-77
2022/02/24 06:27:21;;;;;;;;;;;;;;;22.07;25.55;98336.31;5022236;28;1002;-77
2022/02/24 06:29:47;;;;;;;;;;;;;;;22.16;25.59;98345.06;5031281;28;2003;-77
2022/02/24 06:32:13;;;;;;;;;;;;;;;22.48;25.07;98349.94;5032771;28;2022;-77
2022/02/24 06:34:39;;;;;;;;;;;;;;;22.62;24.87;98352.44;5031583;28;1923;-78
2022/02/24 06:37:05;;;;;;;;;;;;;;;22.19;25.39;98360.41;5033128;28;1878;-78
2022/02/24 06:39:31;;;;;;;;;;;;;;;22.09;25.34;98350.88;5031953;28;1804;-78
2022/02/24 06:41:56;;;;;;;;;;;;;;;21.94;25.70;98360.94;5015417;28;1777;-78
2022/02/24 06:44:22;;;;;;;;;;;;;;;22.33;25.09;98360.88;5074768;28;1984;-77
2022/02/24 06:46:48;;;;;;;;;;;;;;;22.45;24.92;98361.41;5078994;28;907;-77
2022/02/24 06:49:13;;;;;;;;;;;;;;;22.09;25.13;98368.66;5079531;28;1534;-77
2022/02/24 06:51:39;;;;;;;;;;;;;;;22.01;25.64;98369.25;5095951;28;1017;-77
2022/02/24 06:54:04;;;;;;;;;;;;;;;22.00;25.48;98370.50;5096498;28;915;-77
2022/02/24 06:56:29;;;;;;;;;;;;;;;22.11;25.57;98365.41;5101230;28;919;-76
2022/02/24 06:58:55;;;;;;;;;;;;;;;22.49;25.01;98373.47;5101082;28;969;-77
2022/02/24 07:01:20;;;;;;;;;;;;;;;22.56;24.82;98367.59;5096758;28;1736;-78
2022/02/24 07:03:46;;;;;;;;;;;;;;;22.26;25.17;98378.03;5092029;28;1135;-77
2022/02/24 07:06:11;;;;;;;;;;;;;;;22.01;25.47;98377.75;5101592;28;1983;-77
2022/02/24 07:08:37;;;;;;;;;;;;;;;21.94;25.71;98372.25;5082809;28;955;-79
2022/02/24 07:11:02;;;;;;;;;;;;;;;22.41;24.84;98383.38;5101842;28;925;-78
2022/02/24 07:13:28;;;;;;;;;;;;;;;22.64;24.81;98380.38;5081604;28;1676;-78
2022/02/24 07:15:54;;;;;;;;;;;;;;;22.30;25.08;98378.75;5089126;28;918;-78
2022/02/24 07:18:19;;;;;;;;;;;;;;;22.18;25.30;98382.28;5077824;28;968;-78
2022/02/24 07:20:44;;;;;;;;;;;;;;;22.07;25.19;98378.84;5062408;28;985;-78
2022/02/24 07:23:10;;;;;;;;;;;;;;;22.31;25.33;98383.16;5077292;28;1072;-77
2022/02/24 07:25:35;;;;;;;;;;;;;;;22.50;24.68;98380.72;5079457;28;1984;-79
2022/02/24 07:28:01;;;;;;;;;;;;;;;22.27;24.76;98387.31;5076465;28;1633;-77
2022/02/24 07:30:27;;;;;;;;;;;;;;;22.09;24.99;98394.16;5075170;28;1840;-78
2022/02/24 07:32:53;;;;;;;;;;;;;;;21.95;25.36;98396.53;5076997;28;1160;-78
2022/02/24 07:35:18;;;;;;;;;;;;;;;21.99;25.47;98402.91;5075772;28;1507;-78
2022/02/24 07:37:44;;;;;;;;;;;;;;;21.90;25.61;98400.66;5066987;28;964;-78
2022/02/24 07:40:10;;;;;;;;;;;;;;;21.97;25.65;98399.72;5079309;28;954;-77
2022/02/24 07:42:36;;;;;;;;;;;;;;;21.78;25.52;98381.50;5076877;28;1665;-78
2022/02/24 07:45:04;;;;;;;;;;;;;;;21.87;25.87;98395.09;5044630;28;1968;-78
2022/02/24 07:47:29;;;;;;;;;;;;;;;22.30;24.90;98395.75;5075766;28;1698;-78
2022/02/24 07:49:55;;;;;;;;;;;;;;;22.48;24.75;98394.53;5078171;28;936;-78
2022/02/24 07:52:22;;;;;;;;;;;;;;;22.28;24.85;98397.44;5077187;28;940;-79
2022/02/24 07:54:47;;;;;;;;;;;;;;;22.00;25.55;98398.84;5080915;28;1499;-78
2022/02/24 07:57:13;;;;;;;;;;;;;;;22.02;25.53;98402.03;5059710;28;1613;-77
2022/02/24 07:59:38;;;;;;;;;;;;;;;22.13;25.17;98391.31;5099835;28;1407;-78
2022/02/24 08:02:04;;;;;;;;;;;;;;;22.35;25.09;98408.59;5100029;28;1540;-78
2022/02/24 08:04:29;;;;;;;;;;;;;;;22.23;25.15;98407.25;5099807;28;1975;-79
2022/02/24 08:06:55;;;;;;;;;;;;;;;21.94;25.16;98411.94;5099153;28;841;-78
2022/02/24 08:09:20;;;;;;;;;;;;;;;21.86;25.36;98408.44;5093803;28;1447;-78
2022/02/24 08:12:38;;;;;;;;;;;;;;;21.86;25.48;98405.59;5093582;28;904;-78
2022/02/24 08:14:34;;;;;;;;;;;;;;;22.30;24.97;98412.75;5097810;28;1604;-77
2022/02/24 08:17:00;;;;;;;;;;;;;;;22.36;24.75;98411.00;5099702;28;887;-77
2022/02/24 08:19:25;;;;;;;;;;;;;;;22.07;25.44;98412.84;5098646;28;1533;-78
2022/02/24 08:21:51;;;;;;;;;;;;;;;21.95;25.39;98407.84;5061364;28;1664;-79
2022/02/24 08:24:17;;;;;;;;;;;;;;;21.85;25.50;98409.69;5097282;28;1973;-78
2022/02/24 08:26:42;;;;;;;;;;;;;;;22.07;25.58;98410.81;5064205;28;1282;-76
2022/02/24 08:29:07;;;;;;;;;;;;;;;22.41;25.04;98411.72;5098075;28;1318;-77
2022/02/24 08:31:33;;;;;;;;;;;;;;;22.48;24.81;98414.38;5100636;28;1019;-77
2022/02/24 08:33:58;;;;;;;;;;;;;;;22.10;25.33;98415.63;5099312;28;963;-78
2022/02/24 08:36:24;;;;;;;;;;;;;;;21.95;25.49;98425.66;5094049;28;2062;-79
2022/02/24 08:38:50;;;;;;;;;;;;;;;22.04;25.55;98417.34;5097739;28;1467;-77
2022/02/24 08:41:15;;;;;;;;;;;;;;;22.27;25.30;98418.50;5100599;28;1488;-78
2022/02/24 08:43:41;;;;;;;;;;;;;;;22.58;24.80;98413.31;5095514;28;1785;-78
2022/02/24 08:46:06;;;;;;;;;;;;;;;22.16;24.96;98418.75;5093623;28;2280;-79
2022/02/24 08:48:32;;;;;;;;;;;;;;;22.14;25.12;98421.22;5093806;28;1814;-79
2022/02/24 08:50:57;;;;;;;;;;;;;;;22.01;25.41;98423.09;5097034;28;1971;-78
2022/02/24 08:53:24;;;;;;;;;;;;;;;22.24;25.08;98425.88;5097927;28;1514;-79
2022/02/24 08:55:49;;;;;;;;;;;;;;;22.49;25.01;98413.94;5096679;28;1453;-79
2022/02/24 08:58:16;;;;;;;;;;;;;;;22.29;24.97;98405.50;5045346;28;1505;-78
2022/02/24 09:00:47;;;;;;;;;;;;;;;22.03;25.22;98404.44;5100140;28;1481;-78
2022/02/24 09:03:13;;;;;;;;;;;;;;;21.93;25.63;98399.78;5093093;28;1598;-78
2022/02/24 09:05:38;;;;;;;;;;;;;;;21.97;25.63;98403.38;5094641;28;2047;-76
2022/02/24 09:08:04;;;;;;;;;;;;;;;22.43;25.17;98401.50;5086519;28;1805;-75
2022/02/24 09:10:30;;;;;;;;;;;;;;;22.64;24.42;98414.41;5090054;28;1807;-75
2022/02/24 09:12:55;;;;;;;;;;;;;;;22.35;24.89;98412.25;5060667;28;1596;-74
2022/02/24 09:15:21;;;;;;;;;;;;;;;22.32;25.19;98415.16;5096483;28;1706;-74
2022/02/24 09:17:46;;;;;;;;;;;;;;;22.18;25.31;98415.50;5060638;28;1525;-77
2022/02/24 09:20:12;;;;;;;;;;;;;;;22.09;25.57;98418.88;5099217;28;908;-78
2022/02/24 09:22:37;;;;;;;;;;;;;;;22.06;25.56;98419.75;5089730;28;1977;-78
2022/02/24 09:25:03;;;;;;;;;;;;;;;22.10;25.50;98421.31;5096540;28;1972;-79
2022/02/24 09:27:29;;;;;;;;;;;;;;;21.95;25.66;98419.97;5097649;28;1446;-79
2022/02/24 09:29:55;;;;;;;;;;;;;;;21.97;25.52;98428.84;5078949;28;1800;-78
2022/02/24 09:32:20;;;;;;;;;;;;;;;22.22;25.40;98434.00;5091637;28;1857;-77
2022/02/24 09:34:46;;;;;;;;;;;;;;;22.53;25.12;98425.19;5098153;28;1334;-78
2022/02/24 09:37:11;;;;;;;;;;;;;;;22.69;24.83;98416.72;5097656;28;1575;-78
2022/02/24 09:39:37;;;;;;;;;;;;;;;22.24;25.30;98425.88;5098267;28;1092;-77
2022/02/24 09:42:02;;;;;;;;;;;;;;;22.00;25.71;98418.66;5055157;28;958;-79
2022/02/24 09:44:28;;;;;;;;;;;;;;;22.00;25.65;98427.16;5055184;28;1902;-79
2022/02/24 09:46:53;;;;;;;;;;;;;;;22.06;25.62;98416.91;5055500;28;1100;-78
2022/02/24 09:49:20;;;;;;;;;;;;;;;22.03;25.60;98414.97;5038114;28;1537;-78
2022/02/24 09:51:46;;;;;;;;;;;;;;;21.99;25.35;98414.25;4999796;28;967;-79
2022/02/24 09:54:12;;;;;;;;;;;;;;;21.77;25.98;98411.88;5015569;28;951;-78
2022/02/24 09:56:38;;;;;;;;;;;;;;;22.31;24.98;98419.22;5014452;28;1836;-78
2022/02/24 09:59:03;;;;;;;;;;;;;;;22.46;25.06;98420.50;4965308;28;1939;-77
2022/02/24 10:01:29;;;;;;;;;;;;;;;22.60;24.57;98420.16;5016092;28;1113;-79
2022/02/24 10:03:59;;;;;;;;;;;;;;;22.16;25.43;98423.63;5014667;28;1799;-78
2022/02/24 10:06:35;;;;;;;;;;;;;;;22.03;25.63;98421.44;5015482;28;1978;-79
2022/02/24 10:09:01;;;;;;;;;;;;;;;21.88;25.79;98425.00;5014851;28;956;-78
2022/02/24 10:11:31;;;;;;;;;;;;;;;22.10;25.58;98431.81;5016023;28;1845;-79
2022/02/24 10:14:09;;;;;;;;;;;;;;;22.51;24.70;98422.81;5045970;28;2081;-78
2022/02/24 10:16:53;;;;;;;;;;;;;;;22.70;24.45;98418.31;5054956;28;1135;-78
2022/02/24 10:19:31;;;;;;;;;;;;;;;22.24;25.00;98425.88;5054191;28;1084;-79
2022/02/24 10:22:06;;;;;;;;;;;;;;;22.04;25.33;98416.56;5055683;28;1069;-79
2022/02/24 10:24:32;;;;;;;;;;;;;;;22.00;25.55;98421.50;5033377;28;1886;-78
2022/02/24 10:27:16;;;;;;;;;;;;;;;22.28;25.25;98420.91;5035221;28;1087;-78
2022/02/24 10:30:02;;;;;;;;;;;;;;;22.51;24.82;98410.66;5045161;28;1141;-79
2022/02/24 10:32:28;;;;;;;;;;;;;;;22.15;25.31;98417.16;5013972;28;1564;-78
2022/02/24 10:34:54;;;;;;;;;;;;;;;22.00;25.31;98404.50;4995765;28;1786;-79
2022/02/24 10:37:27;;;;;;;;;;;;;;;22.02;25.49;98413.34;4995464;28;1189;-78
2022/02/24 10:40:01;;;;;;;;;;;;;;;22.38;24.86;98406.91;4995701;28;939;-79
2022/02/24 10:42:26;;;;;;;;;;;;;;;22.55;24.42;98406.50;4994890;28;1537;-79
2022/02/24 10:45:04;;;;;;;;;;;;;;;22.24;25.08;98397.53;4995686;28;1906;-78
2022/02/24 10:47:30;;;;;;;;;;;;;;;22.04;25.39;98400.34;4975375;28;995;-78
2022/02/24 10:49:55;;;;;;;;;;;;;;;21.93;25.23;98401.84;4960958;28;1006;-78
2022/02/24 10:52:21;;;;;;;;;;;;;;;22.07;25.47;98399.50;4975669;28;1012;-76
2022/02/24 10:54:56;;;;;;;;;;;;;;;22.46;24.88;98397.00;4934317;29;1001;-76
2022/02/24 10:57:24;;;;;;;;;;;;;;;22.36;24.51;98393.19;4916327;29;2169;-76
2022/02/24 10:59:53;;;;;;;;;;;;;;;22.05;25.29;98392.66;4933975;29;2318;-76
2022/02/24 11:02:19;;;;;;;;;;;;;;;21.94;25.36;98389.25;4917755;29;1167;-76
2022/02/24 11:04:44;;;;;;;;;;;;;;;21.99;25.44;98385.91;4918907;29;2139;-76
2022/02/24 11:07:10;;;;;;;;;;;;;;;22.46;24.75;98391.34;4936799;29;1983;-77
2022/02/24 11:09:39;;;;;;;;;;;;;;;22.67;24.30;98390.03;4947637;29;964;-75
2022/02/24 11:12:06;;;;;;;;;;;;;;;22.21;25.09;98387.03;4930038;29;2098;-77
2022/02/24 11:14:32;;;;;;;;;;;;;;;21.96;25.45;98381.09;4937047;28;965;-76
2022/02/24 11:16:59;;;;;;;;;;;;;;;22.02;25.10;98382.19;4952293;28;1684;-77
2022/02/24 11:19:26;;;;;;;;;;;;;;;22.24;24.77;98380.50;4949450;29;2162;-77
2022/02/24 11:21:51;;;;;;;;;;;;;;;22.44;24.57;98371.16;4937199;28;1561;-77
2022/02/24 11:24:16;;;;;;;;;;;;;;;22.53;24.65;98374.16;4936449;29;1906;-77
2022/02/24 11:26:46;;;;;;;;;;;;;;;22.21;24.90;98364.38;4988522;28;930;-77
2022/02/24 11:29:23;;;;;;;;;;;;;;;22.12;24.97;98372.66;5009833;28;1806;-77
2022/02/24 11:31:49;;;;;;;;;;;;;;;21.99;25.07;98377.41;5010870;28;1026;-77
2022/02/24 11:34:14;;;;;;;;;;;;;;;22.22;25.09;98376.50;5013986;28;1518;-77
2022/02/24 11:36:43;;;;;;;;;;;;;;;22.41;24.59;98372.03;5014991;28;963;-76
2022/02/24 11:39:10;;;;;;;;;;;;;;;22.57;24.53;98383.38;5013100;28;1471;-76
2022/02/24 11:41:50;;;;;;;;;;;;;;;22.67;24.20;98376.63;4996759;28;986;-76
2022/02/24 11:44:32;;;;;;;;;;;;;;;22.31;24.87;98374.66;4981679;28;1983;-77
2022/02/24 11:46:58;;;;;;;;;;;;;;;22.07;25.21;98368.31;5003285;28;1354;-77
2022/02/24 11:49:42;;;;;;;;;;;;;;;22.19;25.21;98371.72;4999402;28;1058;-77
2022/02/24 11:52:23;;;;;;;;;;;;;;;22.52;24.44;98367.69;4998154;28;1072;-77
2022/02/24 11:54:49;;;;;;;;;;;;;;;22.49;24.67;98362.13;4998263;28;1041;-77
2022/02/24 11:57:33;;;;;;;;;;;;;;;22.00;25.02;98362.00;4997983;28;985;-77
2022/02/24 12:00:09;;;;;;;;;;;;;;;22.12;25.13;98355.66;5006392;28;976;-77
2022/02/24 12:02:41;;;;;;;;;;;;;;;22.08;25.00;98350.06;5016700;28;1001;-76
2022/02/24 12:05:35;;;;;;;;;;;;;;;22.59;24.49;98355.38;5027013;28;1988;-77
2022/02/24 12:08:09;;;;;;;;;;;;;;;22.34;24.56;98362.44;4958117;29;1076;-77
2022/02/24 12:10:43;;;;;;;;;;;;;;;22.10;24.91;98355.28;4960728;29;1002;-76
2022/02/24 12:13:26;;;;;;;;;;;;;;;22.04;25.15;98355.03;4901609;29;998;-77
2022/02/24 12:16:11;;;;;;;;;;;;;;;22.14;25.30;98358.88;4902507;29;999;-77
2022/02/24 12:18:37;;;;;;;;;;;;;;;22.49;24.35;98368.59;4912301;29;1841;-76
2022/02/24 12:21:20;;;;;;;;;;;;;;;22.30;24.80;98352.44;4939205;29;1657;-78
2022/02/24 12:23:46;;;;;;;;;;;;;;;21.94;24.99;98350.38;4939266;29;950;-77
2022/02/24 12:26:12;;;;;;;;;;;;;;;22.00;25.24;98348.63;4902323;29;1911;-77
2022/02/24 12:28:37;;;;;;;;;;;;;;;22.03;25.16;98352.63;4900657;29;1808;-77
2022/02/24 12:31:03;;;;;;;;;;;;;;;22.27;24.92;98359.78;4902195;29;943;-77
2022/02/24 12:33:29;;;;;;;;;;;;;;;22.65;24.16;98352.81;4901636;29;948;-77
2022/02/24 12:35:55;;;;;;;;;;;;;;;22.12;24.85;98344.34;4884943;29;1651;-77
2022/02/24 12:38:20;;;;;;;;;;;;;;;22.08;24.82;98352.13;4901085;29;1042;-76
2022/02/24 12:40:47;;;;;;;;;;;;;;;21.99;25.04;98346.25;4902367;29;1057;-76
2022/02/24 12:43:13;;;;;;;;;;;;;;;21.95;25.09;98339.84;4907543;29;1029;-77
2022/02/24 12:45:39;;;;;;;;;;;;;;;22.31;24.57;98340.66;5050625;28;2094;-78
2022/02/24 12:48:05;;;;;;;;;;;;;;;22.56;24.23;98344.91;5035079;28;1107;-77
2022/02/24 12:50:38;;;;;;;;;;;;;;;22.16;24.68;98338.59;5046241;28;1938;-76
2022/02/24 12:53:08;;;;;;;;;;;;;;;22.10;25.03;98341.13;5042910;28;1723;-77
2022/02/24 12:55:34;;;;;;;;;;;;;;;21.99;24.97;98332.06;5053556;28;914;-76
2022/02/24 12:57:59;;;;;;;;;;;;;;;22.19;25.12;98327.19;5088642;28;1044;-77